sensor_id;sensor_type;location;lat;lon;timestamp;temperature;humidity
24035;DHT22;12242;50.952;4.678;2024-03-17T00:00:44;7.90;99.90
24035;DHT22;12242;50.952;4.678;2024-03-17T00:03:14;7.80;99.90
24035;DHT22;12242;50.952;4.678;2024-03-17T00:05:41;7.80;99.90
24035;DHT22;12242;50.952;4.678;2024-03-17T00:08:12;7.80;99.90
24035;DHT22;12242;50.952;4.678;2024-03-17T00:10:41;7.80;99.90
24035;DHT22;12242;50.952;4.678;2024-03-17T00:13:08;7.90;99.90
24035;DHT22;12242;50.952;4.678;2024-03-17T00:15:37;7.90;99.90
24035;DHT22;12242;50.952;4.678;2024-03-17T00:18:04;7.90;99.90
24035;DHT22;12242;50.952;4.678;2024-03-17T00:20:34;8.10;99.90
24035;DHT22;12242;50.952;4.678;2024-03-17T00:23:03;8.00;99.90
24035;DHT22;12242;50.952;4.678;2024-03-17T00:25:30;8.10;99.90
24035;DHT22;12242;50.952;4.678;2024-03-17T00:27:57;8.00;99.90
24035;DHT22;12242;50.952;4.678;2024-03-17T00:30:28;8.20;99.90
24035;DHT22;12242;50.952;4.678;2024-03-17T00:32:55;8.20;99.90
24035;DHT22;12242;50.952;4.678;2024-03-17T00:35:22;8.30;99.90
24035;DHT22;12242;50.952;4.678;2024-03-17T00:37:50;8.40;99.90
24035;DHT22;12242;50.952;4.678;2024-03-17T00:40:18;8.40;99.90
24035;DHT22;12242;50.952;4.678;2024-03-17T00:42:47;8.40;99.90
24035;DHT22;12242;50.952;4.678;2024-03-17T00:45:13;8.30;99.90
24035;DHT22;12242;50.952;4.678;2024-03-17T00:47:40;8.20;99.90
24035;DHT22;12242;50.952;4.678;2024-03-17T00:50:07;8.10;99.90
24035;DHT22;12242;50.952;4.678;2024-03-17T00:52:35;8.10;99.90
24035;DHT22;12242;50.952;4.678;2024-03-17T00:55:02;8.00;99.90
24035;DHT22;12242;50.952;4.678;2024-03-17T00:57:28;8.00;99.90
24035;DHT22;12242;50.952;4.678;2024-03-17T00:59:56;7.90;99.90
24035;DHT22;12242;50.952;4.678;2024-03-17T01:02:25;7.90;99.90
24035;DHT22;12242;50.952;4.678;2024-03-17T01:04:52;8.20;99.90
24035;DHT22;12242;50.952;4.678;2024-03-17T01:07:18;8.40;99.90
24035;DHT22;12242;50.952;4.678;2024-03-17T01:09:47;8.60;99.90
24035;DHT22;12242;50.952;4.678;2024-03-17T01:12:15;8.80;99.90
24035;DHT22;12242;50.952;4.678;2024-03-17T01:14:41;8.80;99.90
24035;DHT22;12242;50.952;4.678;2024-03-17T01:17:16;8.90;99.90
24035;DHT22;12242;50.952;4.678;2024-03-17T01:19:43;8.80;99.90
24035;DHT22;12242;50.952;4.678;2024-03-17T01:22:13;8.90;99.90
24035;DHT22;12242;50.952;4.678;2024-03-17T01:24:39;8.90;99.90
24035;DHT22;12242;50.952;4.678;2024-03-17T01:27:12;8.80;99.90
24035;DHT22;12242;50.952;4.678;2024-03-17T01:29:42;8.80;99.90
24035;DHT22;12242;50.952;4.678;2024-03-17T01:32:10;8.70;99.90
24035;DHT22;12242;50.952;4.678;2024-03-17T01:34:40;8.80;99.90
24035;DHT22;12242;50.952;4.678;2024-03-17T01:37:11;8.90;99.90
24035;DHT22;12242;50.952;4.678;2024-03-17T01:39:37;8.80;99.90
24035;DHT22;12242;50.952;4.678;2024-03-17T01:42:04;8.80;99.90
24035;DHT22;12242;50.952;4.678;2024-03-17T01:44:33;8.60;99.90
24035;DHT22;12242;50.952;4.678;2024-03-17T01:47:00;8.60;99.90
24035;DHT22;12242;50.952;4.678;2024-03-17T01:49:27;8.60;99.90
24035;DHT22;12242;50.952;4.678;2024-03-17T01:51:55;8.60;99.90
24035;DHT22;12242;50.952;4.678;2024-03-17T01:54:22;8.40;99.90
24035;DHT22;12242;50.952;4.678;2024-03-17T01:56:49;8.40;99.90
24035;DHT22;12242;50.952;4.678;2024-03-17T01:59:16;8.40;99.90
24035;DHT22;12242;50.952;4.678;2024-03-17T02:01:44;8.50;99.90
24035;DHT22;12242;50.952;4.678;2024-03-17T02:04:13;8.40;99.90
24035;DHT22;12242;50.952;4.678;2024-03-17T02:06:42;8.30;99.90
24035;DHT22;12242;50.952;4.678;2024-03-17T02:09:09;8.40;99.90
24035;DHT22;12242;50.952;4.678;2024-03-17T02:11:36;8.40;99.90
24035;DHT22;12242;50.952;4.678;2024-03-17T02:14:05;8.50;99.90
24035;DHT22;12242;50.952;4.678;2024-03-17T02:16:34;8.60;99.90
24035;DHT22;12242;50.952;4.678;2024-03-17T02:19:00;8.60;99.90
24035;DHT22;12242;50.952;4.678;2024-03-17T02:21:27;8.60;99.90
24035;DHT22;12242;50.952;4.678;2024-03-17T02:23:56;8.70;99.90
24035;DHT22;12242;50.952;4.678;2024-03-17T02:26:26;8.70;99.90
24035;DHT22;12242;50.952;4.678;2024-03-17T02:28:55;8.70;99.90
24035;DHT22;12242;50.952;4.678;2024-03-17T02:31:22;8.70;99.90
24035;DHT22;12242;50.952;4.678;2024-03-17T02:33:48;8.60;99.90
24035;DHT22;12242;50.952;4.678;2024-03-17T02:36:17;8.40;99.90
24035;DHT22;12242;50.952;4.678;2024-03-17T02:38:44;8.40;99.90
24035;DHT22;12242;50.952;4.678;2024-03-17T02:41:29;8.10;99.90
24035;DHT22;12242;50.952;4.678;2024-03-17T02:43:56;8.00;99.90
24035;DHT22;12242;50.952;4.678;2024-03-17T02:46:25;7.80;99.90
24035;DHT22;12242;50.952;4.678;2024-03-17T02:48:52;7.70;99.90
24035;DHT22;12242;50.952;4.678;2024-03-17T02:51:22;7.60;99.90
24035;DHT22;12242;50.952;4.678;2024-03-17T02:53:52;7.70;99.90
24035;DHT22;12242;50.952;4.678;2024-03-17T02:56:19;7.70;99.90
24035;DHT22;12242;50.952;4.678;2024-03-17T02:58:47;7.70;99.90
24035;DHT22;12242;50.952;4.678;2024-03-17T03:01:15;7.80;99.90
24035;DHT22;12242;50.952;4.678;2024-03-17T03:03:42;7.70;99.90
24035;DHT22;12242;50.952;4.678;2024-03-17T03:06:09;7.70;99.90
24035;DHT22;12242;50.952;4.678;2024-03-17T03:08:41;7.80;99.90
24035;DHT22;12242;50.952;4.678;2024-03-17T03:11:09;7.90;99.90
24035;DHT22;12242;50.952;4.678;2024-03-17T03:13:40;8.00;99.90
24035;DHT22;12242;50.952;4.678;2024-03-17T03:16:11;8.20;99.90
24035;DHT22;12242;50.952;4.678;2024-03-17T03:18:38;8.30;99.90
24035;DHT22;12242;50.952;4.678;2024-03-17T03:21:08;8.40;99.90
24035;DHT22;12242;50.952;4.678;2024-03-17T03:23:37;8.70;99.90
24035;DHT22;12242;50.952;4.678;2024-03-17T03:26:04;8.70;99.90
24035;DHT22;12242;50.952;4.678;2024-03-17T03:28:32;8.70;99.90
24035;DHT22;12242;50.952;4.678;2024-03-17T03:31:00;8.50;99.90
24035;DHT22;12242;50.952;4.678;2024-03-17T03:33:26;8.60;99.90
24035;DHT22;12242;50.952;4.678;2024-03-17T03:35:53;8.60;99.90
24035;DHT22;12242;50.952;4.678;2024-03-17T03:38:24;8.70;99.90
24035;DHT22;12242;50.952;4.678;2024-03-17T03:40:52;8.80;99.90
24035;DHT22;12242;50.952;4.678;2024-03-17T03:43:20;8.90;99.90
24035;DHT22;12242;50.952;4.678;2024-03-17T03:45:46;8.80;99.90
24035;DHT22;12242;50.952;4.678;2024-03-17T03:48:13;8.70;99.90
24035;DHT22;12242;50.952;4.678;2024-03-17T03:50:46;8.70;99.90
24035;DHT22;12242;50.952;4.678;2024-03-17T03:53:12;8.60;99.90
24035;DHT22;12242;50.952;4.678;2024-03-17T03:55:41;8.60;99.90
24035;DHT22;12242;50.952;4.678;2024-03-17T03:58:10;8.60;99.90
24035;DHT22;12242;50.952;4.678;2024-03-17T04:00:39;8.70;99.90
24035;DHT22;12242;50.952;4.678;2024-03-17T04:03:06;8.80;99.90
24035;DHT22;12242;50.952;4.678;2024-03-17T04:05:33;8.70;99.90
24035;DHT22;12242;50.952;4.678;2024-03-17T04:08:00;8.50;99.90
24035;DHT22;12242;50.952;4.678;2024-03-17T04:10:30;8.40;99.90
24035;DHT22;12242;50.952;4.678;2024-03-17T04:12:57;8.50;99.90
24035;DHT22;12242;50.952;4.678;2024-03-17T04:15:23;8.70;99.90
24035;DHT22;12242;50.952;4.678;2024-03-17T04:17:50;8.60;99.90
24035;DHT22;12242;50.952;4.678;2024-03-17T04:20:17;8.70;99.90
24035;DHT22;12242;50.952;4.678;2024-03-17T04:22:44;8.40;99.90
24035;DHT22;12242;50.952;4.678;2024-03-17T04:25:11;8.20;99.90
24035;DHT22;12242;50.952;4.678;2024-03-17T04:27:39;8.10;99.90
24035;DHT22;12242;50.952;4.678;2024-03-17T04:30:06;8.20;99.90
24035;DHT22;12242;50.952;4.678;2024-03-17T04:32:33;8.20;99.90
24035;DHT22;12242;50.952;4.678;2024-03-17T04:35:05;8.30;99.90
24035;DHT22;12242;50.952;4.678;2024-03-17T04:37:31;8.40;99.90
24035;DHT22;12242;50.952;4.678;2024-03-17T04:40:06;8.40;99.90
24035;DHT22;12242;50.952;4.678;2024-03-17T04:42:36;8.40;99.90
24035;DHT22;12242;50.952;4.678;2024-03-17T04:45:08;8.30;99.90
24035;DHT22;12242;50.952;4.678;2024-03-17T04:47:38;8.20;99.90
24035;DHT22;12242;50.952;4.678;2024-03-17T04:50:05;8.10;99.90
24035;DHT22;12242;50.952;4.678;2024-03-17T04:52:32;7.90;99.90
24035;DHT22;12242;50.952;4.678;2024-03-17T04:55:01;7.80;99.90
24035;DHT22;12242;50.952;4.678;2024-03-17T04:57:28;7.60;99.90
24035;DHT22;12242;50.952;4.678;2024-03-17T04:59:55;7.60;99.90
24035;DHT22;12242;50.952;4.678;2024-03-17T05:02:24;7.50;99.90
24035;DHT22;12242;50.952;4.678;2024-03-17T05:04:54;7.40;99.90
24035;DHT22;12242;50.952;4.678;2024-03-17T05:07:23;7.20;99.90
24035;DHT22;12242;50.952;4.678;2024-03-17T05:09:50;7.20;99.90
24035;DHT22;12242;50.952;4.678;2024-03-17T05:12:21;7.20;99.90
24035;DHT22;12242;50.952;4.678;2024-03-17T05:14:53;7.10;99.90
24035;DHT22;12242;50.952;4.678;2024-03-17T05:17:22;7.20;99.90
24035;DHT22;12242;50.952;4.678;2024-03-17T05:19:53;7.20;99.90
24035;DHT22;12242;50.952;4.678;2024-03-17T05:22:22;7.20;99.90
24035;DHT22;12242;50.952;4.678;2024-03-17T05:24:49;7.20;99.90
24035;DHT22;12242;50.952;4.678;2024-03-17T05:27:15;7.20;99.90
24035;DHT22;12242;50.952;4.678;2024-03-17T05:29:43;7.20;99.90
24035;DHT22;12242;50.952;4.678;2024-03-17T05:32:12;7.30;99.90
24035;DHT22;12242;50.952;4.678;2024-03-17T05:34:41;7.40;99.90
24035;DHT22;12242;50.952;4.678;2024-03-17T05:37:12;7.50;99.90
24035;DHT22;12242;50.952;4.678;2024-03-17T05:39:38;7.60;99.90
24035;DHT22;12242;50.952;4.678;2024-03-17T05:42:07;7.60;99.90
24035;DHT22;12242;50.952;4.678;2024-03-17T05:44:33;7.60;99.90
24035;DHT22;12242;50.952;4.678;2024-03-17T05:47:17;7.60;99.90
24035;DHT22;12242;50.952;4.678;2024-03-17T05:49:47;7.70;99.90
24035;DHT22;12242;50.952;4.678;2024-03-17T05:52:16;7.80;99.90
24035;DHT22;12242;50.952;4.678;2024-03-17T05:54:47;8.00;99.90
24035;DHT22;12242;50.952;4.678;2024-03-17T05:57:13;8.20;99.90
24035;DHT22;12242;50.952;4.678;2024-03-17T05:59:42;8.40;99.90
24035;DHT22;12242;50.952;4.678;2024-03-17T06:02:11;8.50;99.90
24035;DHT22;12242;50.952;4.678;2024-03-17T06:04:40;8.60;99.90
24035;DHT22;12242;50.952;4.678;2024-03-17T06:07:07;8.60;99.90
24035;DHT22;12242;50.952;4.678;2024-03-17T06:09:41;8.50;99.90
24035;DHT22;12242;50.952;4.678;2024-03-17T06:12:13;8.50;99.90
24035;DHT22;12242;50.952;4.678;2024-03-17T06:14:42;8.40;99.90
24035;DHT22;12242;50.952;4.678;2024-03-17T06:17:16;8.20;99.90
24035;DHT22;12242;50.952;4.678;2024-03-17T06:19:45;8.20;99.90
24035;DHT22;12242;50.952;4.678;2024-03-17T06:22:14;8.10;99.90
24035;DHT22;12242;50.952;4.678;2024-03-17T06:24:40;8.40;99.90
24035;DHT22;12242;50.952;4.678;2024-03-17T06:27:09;8.50;99.90
24035;DHT22;12242;50.952;4.678;2024-03-17T06:29:42;8.80;99.90
24035;DHT22;12242;50.952;4.678;2024-03-17T06:32:12;9.00;99.90
24035;DHT22;12242;50.952;4.678;2024-03-17T06:34:41;9.00;99.90
24035;DHT22;12242;50.952;4.678;2024-03-17T06:37:10;9.20;99.90
24035;DHT22;12242;50.952;4.678;2024-03-17T06:39:37;9.40;99.90
24035;DHT22;12242;50.952;4.678;2024-03-17T06:42:06;9.40;99.90
24035;DHT22;12242;50.952;4.678;2024-03-17T06:44:33;9.40;99.90
24035;DHT22;12242;50.952;4.678;2024-03-17T06:47:01;9.40;99.90
24035;DHT22;12242;50.952;4.678;2024-03-17T06:49:28;9.50;99.90
24035;DHT22;12242;50.952;4.678;2024-03-17T06:51:54;9.80;99.90
24035;DHT22;12242;50.952;4.678;2024-03-17T06:54:21;10.00;99.90
24035;DHT22;12242;50.952;4.678;2024-03-17T06:56:49;10.10;99.90
24035;DHT22;12242;50.952;4.678;2024-03-17T06:59:18;10.20;99.90
24035;DHT22;12242;50.952;4.678;2024-03-17T07:01:48;10.10;99.90
24035;DHT22;12242;50.952;4.678;2024-03-17T07:04:14;10.00;99.90
24035;DHT22;12242;50.952;4.678;2024-03-17T07:06:43;10.00;99.90
24035;DHT22;12242;50.952;4.678;2024-03-17T07:09:12;10.00;99.90
24035;DHT22;12242;50.952;4.678;2024-03-17T07:11:38;10.00;99.90
24035;DHT22;12242;50.952;4.678;2024-03-17T07:14:08;10.10;99.90
24035;DHT22;12242;50.952;4.678;2024-03-17T07:16:34;10.20;99.90
24035;DHT22;12242;50.952;4.678;2024-03-17T07:19:02;10.50;99.90
24035;DHT22;12242;50.952;4.678;2024-03-17T07:21:31;10.90;99.90
24035;DHT22;12242;50.952;4.678;2024-03-17T07:23:58;11.20;99.90
24035;DHT22;12242;50.952;4.678;2024-03-17T07:26:33;11.30;99.90
24035;DHT22;12242;50.952;4.678;2024-03-17T07:29:02;11.30;99.90
24035;DHT22;12242;50.952;4.678;2024-03-17T07:31:31;11.30;99.90
24035;DHT22;12242;50.952;4.678;2024-03-17T07:33:59;11.30;99.90
24035;DHT22;12242;50.952;4.678;2024-03-17T07:36:26;11.50;99.90
24035;DHT22;12242;50.952;4.678;2024-03-17T07:38:55;11.50;99.90
24035;DHT22;12242;50.952;4.678;2024-03-17T07:41:25;11.60;99.90
24035;DHT22;12242;50.952;4.678;2024-03-17T07:43:52;11.80;99.90
24035;DHT22;12242;50.952;4.678;2024-03-17T07:46:19;12.00;99.90
24035;DHT22;12242;50.952;4.678;2024-03-17T07:48:51;12.30;99.90
24035;DHT22;12242;50.952;4.678;2024-03-17T07:51:18;12.20;99.90
24035;DHT22;12242;50.952;4.678;2024-03-17T07:53:47;12.10;99.90
24035;DHT22;12242;50.952;4.678;2024-03-17T07:56:20;11.90;99.90
24035;DHT22;12242;50.952;4.678;2024-03-17T07:58:46;11.90;99.90
24035;DHT22;12242;50.952;4.678;2024-03-17T08:01:17;11.80;99.90
24035;DHT22;12242;50.952;4.678;2024-03-17T08:03:46;11.70;99.90
24035;DHT22;12242;50.952;4.678;2024-03-17T08:06:15;12.00;99.90
24035;DHT22;12242;50.952;4.678;2024-03-17T08:08:42;12.20;99.90
24035;DHT22;12242;50.952;4.678;2024-03-17T08:11:09;12.40;99.90
24035;DHT22;12242;50.952;4.678;2024-03-17T08:13:38;12.70;99.90
24035;DHT22;12242;50.952;4.678;2024-03-17T08:16:07;12.80;99.90
24035;DHT22;12242;50.952;4.678;2024-03-17T08:18:35;13.10;99.90
24035;DHT22;12242;50.952;4.678;2024-03-17T08:21:02;13.40;99.90
24035;DHT22;12242;50.952;4.678;2024-03-17T08:23:33;13.70;99.90
24035;DHT22;12242;50.952;4.678;2024-03-17T08:26:02;14.30;99.90
24035;DHT22;12242;50.952;4.678;2024-03-17T08:28:29;16.10;99.90
24035;DHT22;12242;50.952;4.678;2024-03-17T08:31:03;17.90;99.90
24035;DHT22;12242;50.952;4.678;2024-03-17T08:33:31;19.10;99.90
24035;DHT22;12242;50.952;4.678;2024-03-17T08:36:06;19.50;99.90
24035;DHT22;12242;50.952;4.678;2024-03-17T08:38:37;19.60;99.90
24035;DHT22;12242;50.952;4.678;2024-03-17T08:41:06;19.80;99.90
24035;DHT22;12242;50.952;4.678;2024-03-17T08:43:34;19.00;99.90
24035;DHT22;12242;50.952;4.678;2024-03-17T08:48:31;18.60;99.90
24035;DHT22;12242;50.952;4.678;2024-03-17T08:51:04;18.30;99.90
24035;DHT22;12242;50.952;4.678;2024-03-17T08:53:31;18.20;99.90
24035;DHT22;12242;50.952;4.678;2024-03-17T08:56:03;17.80;99.90
24035;DHT22;12242;50.952;4.678;2024-03-17T08:58:29;17.80;99.90
24035;DHT22;12242;50.952;4.678;2024-03-17T09:00:56;17.90;99.90
24035;DHT22;12242;50.952;4.678;2024-03-17T09:03:23;17.60;99.90
24035;DHT22;12242;50.952;4.678;2024-03-17T09:05:53;17.50;99.90
24035;DHT22;12242;50.952;4.678;2024-03-17T09:08:22;17.60;99.90
24035;DHT22;12242;50.952;4.678;2024-03-17T09:10:52;17.80;99.90
24035;DHT22;12242;50.952;4.678;2024-03-17T09:13:21;17.70;99.90
24035;DHT22;12242;50.952;4.678;2024-03-17T09:15:54;17.50;99.90
24035;DHT22;12242;50.952;4.678;2024-03-17T09:18:23;17.00;99.90
24035;DHT22;12242;50.952;4.678;2024-03-17T09:21:00;16.50;99.90
24035;DHT22;12242;50.952;4.678;2024-03-17T09:23:33;16.10;99.90
24035;DHT22;12242;50.952;4.678;2024-03-17T09:26:10;16.20;99.90
24035;DHT22;12242;50.952;4.678;2024-03-17T09:28:40;16.30;99.90
24035;DHT22;12242;50.952;4.678;2024-03-17T09:31:07;16.40;99.90
24035;DHT22;12242;50.952;4.678;2024-03-17T09:33:35;16.40;99.90
24035;DHT22;12242;50.952;4.678;2024-03-17T09:36:06;16.40;99.90
24035;DHT22;12242;50.952;4.678;2024-03-17T09:38:36;16.40;99.90
24035;DHT22;12242;50.952;4.678;2024-03-17T09:41:03;16.50;99.90
24035;DHT22;12242;50.952;4.678;2024-03-17T09:43:33;16.20;99.90
24035;DHT22;12242;50.952;4.678;2024-03-17T09:46:03;16.20;99.90
24035;DHT22;12242;50.952;4.678;2024-03-17T09:48:30;15.90;99.90
24035;DHT22;12242;50.952;4.678;2024-03-17T09:51:03;15.60;99.90
24035;DHT22;12242;50.952;4.678;2024-03-17T09:53:34;15.60;99.90
24035;DHT22;12242;50.952;4.678;2024-03-17T09:56:11;15.70;99.90
24035;DHT22;12242;50.952;4.678;2024-03-17T09:58:38;15.70;99.90
24035;DHT22;12242;50.952;4.678;2024-03-17T10:01:05;15.70;99.90
24035;DHT22;12242;50.952;4.678;2024-03-17T10:03:48;15.60;99.90
24035;DHT22;12242;50.952;4.678;2024-03-17T10:06:24;15.40;99.90
24035;DHT22;12242;50.952;4.678;2024-03-17T10:08:52;15.40;99.90
24035;DHT22;12242;50.952;4.678;2024-03-17T10:11:22;15.40;99.90
24035;DHT22;12242;50.952;4.678;2024-03-17T10:14:00;15.40;99.90
24035;DHT22;12242;50.952;4.678;2024-03-17T10:16:29;15.10;99.90
24035;DHT22;12242;50.952;4.678;2024-03-17T10:19:12;15.20;99.90
24035;DHT22;12242;50.952;4.678;2024-03-17T10:24:13;15.20;99.90
24035;DHT22;12242;50.952;4.678;2024-03-17T10:26:43;15.30;99.90
24035;DHT22;12242;50.952;4.678;2024-03-17T10:29:27;15.30;99.90
24035;DHT22;12242;50.952;4.678;2024-03-17T10:32:01;15.40;99.90
24035;DHT22;12242;50.952;4.678;2024-03-17T10:34:31;15.50;99.90
24035;DHT22;12242;50.952;4.678;2024-03-17T10:39:43;15.90;99.90
24035;DHT22;12242;50.952;4.678;2024-03-17T10:42:11;16.10;99.90
24035;DHT22;12242;50.952;4.678;2024-03-17T10:44:41;16.20;99.90
24035;DHT22;12242;50.952;4.678;2024-03-17T10:47:23;16.30;99.90
24035;DHT22;12242;50.952;4.678;2024-03-17T10:49:51;16.30;99.90
24035;DHT22;12242;50.952;4.678;2024-03-17T10:52:19;16.40;99.90
24035;DHT22;12242;50.952;4.678;2024-03-17T10:54:48;16.40;99.90
24035;DHT22;12242;50.952;4.678;2024-03-17T11:00:05;16.00;99.90
24035;DHT22;12242;50.952;4.678;2024-03-17T11:02:43;15.90;99.90
24035;DHT22;12242;50.952;4.678;2024-03-17T11:07:52;16.20;99.90
24035;DHT22;12242;50.952;4.678;2024-03-17T11:10:26;16.10;99.90
24035;DHT22;12242;50.952;4.678;2024-03-17T11:12:57;16.10;99.90
24035;DHT22;12242;50.952;4.678;2024-03-17T11:20:42;16.00;99.90
24035;DHT22;12242;50.952;4.678;2024-03-17T11:23:09;16.20;99.90
24035;DHT22;12242;50.952;4.678;2024-03-17T11:25:52;16.30;99.90
24035;DHT22;12242;50.952;4.678;2024-03-17T11:31:38;16.50;99.90
24035;DHT22;12242;50.952;4.678;2024-03-17T11:34:33;16.50;99.90
24035;DHT22;12242;50.952;4.678;2024-03-17T11:37:02;16.70;99.90
24035;DHT22;12242;50.952;4.678;2024-03-17T11:42:19;17.00;99.90
24035;DHT22;12242;50.952;4.678;2024-03-17T11:45:00;17.10;99.90
24035;DHT22;12242;50.952;4.678;2024-03-17T11:47:34;17.20;99.90
24035;DHT22;12242;50.952;4.678;2024-03-17T11:50:08;17.10;99.90
24035;DHT22;12242;50.952;4.678;2024-03-17T11:52:38;17.10;99.90
24035;DHT22;12242;50.952;4.678;2024-03-17T11:55:17;17.20;99.90
24035;DHT22;12242;50.952;4.678;2024-03-17T11:57:55;17.20;99.90
24035;DHT22;12242;50.952;4.678;2024-03-17T12:00:25;17.50;99.90
24035;DHT22;12242;50.952;4.678;2024-03-17T12:02:52;17.70;99.90
24035;DHT22;12242;50.952;4.678;2024-03-17T12:05:19;18.00;99.90
24035;DHT22;12242;50.952;4.678;2024-03-17T12:07:47;18.00;99.90
24035;DHT22;12242;50.952;4.678;2024-03-17T12:10:16;18.20;99.90
24035;DHT22;12242;50.952;4.678;2024-03-17T12:12:47;18.20;99.90
24035;DHT22;12242;50.952;4.678;2024-03-17T12:15:17;18.50;99.90
24035;DHT22;12242;50.952;4.678;2024-03-17T12:17:45;19.10;99.90
24035;DHT22;12242;50.952;4.678;2024-03-17T12:20:20;19.50;99.90
24035;DHT22;12242;50.952;4.678;2024-03-17T12:22:47;19.90;99.90
24035;DHT22;12242;50.952;4.678;2024-03-17T12:25:20;20.60;99.90
24035;DHT22;12242;50.952;4.678;2024-03-17T12:27:49;21.00;99.90
24035;DHT22;12242;50.952;4.678;2024-03-17T12:30:16;21.00;99.90
24035;DHT22;12242;50.952;4.678;2024-03-17T12:32:45;20.80;99.90
24035;DHT22;12242;50.952;4.678;2024-03-17T12:35:17;20.50;99.90
24035;DHT22;12242;50.952;4.678;2024-03-17T12:37:46;20.30;99.90
24035;DHT22;12242;50.952;4.678;2024-03-17T12:40:20;20.20;99.90
24035;DHT22;12242;50.952;4.678;2024-03-17T12:42:49;20.10;99.90
24035;DHT22;12242;50.952;4.678;2024-03-17T12:45:21;20.20;99.90
24035;DHT22;12242;50.952;4.678;2024-03-17T12:47:49;19.90;99.90
24035;DHT22;12242;50.952;4.678;2024-03-17T12:50:17;19.90;99.90
24035;DHT22;12242;50.952;4.678;2024-03-17T12:52:54;19.90;99.90
24035;DHT22;12242;50.952;4.678;2024-03-17T12:55:22;19.40;99.90
24035;DHT22;12242;50.952;4.678;2024-03-17T12:58:23;19.20;99.90
24035;DHT22;12242;50.952;4.678;2024-03-17T13:01:09;19.10;99.90
24035;DHT22;12242;50.952;4.678;2024-03-17T13:03:39;18.90;99.90
24035;DHT22;12242;50.952;4.678;2024-03-17T13:06:09;18.70;99.90
24035;DHT22;12242;50.952;4.678;2024-03-17T13:08:36;18.90;99.90
24035;DHT22;12242;50.952;4.678;2024-03-17T13:11:03;19.10;99.90
24035;DHT22;12242;50.952;4.678;2024-03-17T13:13:30;19.20;99.90
24035;DHT22;12242;50.952;4.678;2024-03-17T13:15:57;18.60;99.90
24035;DHT22;12242;50.952;4.678;2024-03-17T13:18:27;18.40;99.90
24035;DHT22;12242;50.952;4.678;2024-03-17T13:20:54;18.40;99.90
24035;DHT22;12242;50.952;4.678;2024-03-17T13:23:21;18.50;99.90
24035;DHT22;12242;50.952;4.678;2024-03-17T13:25:57;18.40;99.90
24035;DHT22;12242;50.952;4.678;2024-03-17T13:28:25;18.20;99.90
24035;DHT22;12242;50.952;4.678;2024-03-17T13:30:52;17.90;99.90
24035;DHT22;12242;50.952;4.678;2024-03-17T13:33:21;17.60;99.90
24035;DHT22;12242;50.952;4.678;2024-03-17T13:35:48;17.60;99.90
24035;DHT22;12242;50.952;4.678;2024-03-17T13:38:14;17.90;99.90
24035;DHT22;12242;50.952;4.678;2024-03-17T13:40:41;18.00;99.90
24035;DHT22;12242;50.952;4.678;2024-03-17T13:43:09;18.10;99.90
24035;DHT22;12242;50.952;4.678;2024-03-17T13:45:40;18.00;99.90
24035;DHT22;12242;50.952;4.678;2024-03-17T13:48:08;17.50;99.90
24035;DHT22;12242;50.952;4.678;2024-03-17T13:50:41;17.20;99.90
24035;DHT22;12242;50.952;4.678;2024-03-17T13:53:11;17.30;99.90
24035;DHT22;12242;50.952;4.678;2024-03-17T13:55:38;17.40;99.90
24035;DHT22;12242;50.952;4.678;2024-03-17T13:58:08;17.30;99.90
24035;DHT22;12242;50.952;4.678;2024-03-17T14:00:37;17.50;99.90
24035;DHT22;12242;50.952;4.678;2024-03-17T14:03:05;17.70;99.90
24035;DHT22;12242;50.952;4.678;2024-03-17T14:05:35;17.70;99.90
24035;DHT22;12242;50.952;4.678;2024-03-17T14:08:02;17.50;99.90
24035;DHT22;12242;50.952;4.678;2024-03-17T14:10:32;17.30;99.90
24035;DHT22;12242;50.952;4.678;2024-03-17T14:12:59;17.00;99.90
24035;DHT22;12242;50.952;4.678;2024-03-17T14:15:26;17.00;99.90
24035;DHT22;12242;50.952;4.678;2024-03-17T14:17:53;16.50;99.90
24035;DHT22;12242;50.952;4.678;2024-03-17T14:20:19;16.40;99.90
24035;DHT22;12242;50.952;4.678;2024-03-17T14:22:49;16.40;99.90
24035;DHT22;12242;50.952;4.678;2024-03-17T14:25:23;16.60;99.90
24035;DHT22;12242;50.952;4.678;2024-03-17T14:27:52;16.80;99.90
24035;DHT22;12242;50.952;4.678;2024-03-17T14:30:20;16.80;99.90
24035;DHT22;12242;50.952;4.678;2024-03-17T14:32:47;16.80;99.90
24035;DHT22;12242;50.952;4.678;2024-03-17T14:35:17;16.70;99.90
24035;DHT22;12242;50.952;4.678;2024-03-17T14:37:52;16.60;99.90
24035;DHT22;12242;50.952;4.678;2024-03-17T14:40:20;16.40;99.90
24035;DHT22;12242;50.952;4.678;2024-03-17T14:42:53;16.20;99.90
24035;DHT22;12242;50.952;4.678;2024-03-17T14:45:21;16.10;99.90
24035;DHT22;12242;50.952;4.678;2024-03-17T14:47:51;16.00;99.90
24035;DHT22;12242;50.952;4.678;2024-03-17T14:50:20;16.00;99.90
24035;DHT22;12242;50.952;4.678;2024-03-17T14:52:46;16.20;99.90
24035;DHT22;12242;50.952;4.678;2024-03-17T14:55:13;16.30;99.90
24035;DHT22;12242;50.952;4.678;2024-03-17T14:57:42;15.90;99.90
24035;DHT22;12242;50.952;4.678;2024-03-17T15:00:11;16.00;99.90
24035;DHT22;12242;50.952;4.678;2024-03-17T15:02:50;15.90;99.90
24035;DHT22;12242;50.952;4.678;2024-03-17T15:05:19;15.80;99.90
24035;DHT22;12242;50.952;4.678;2024-03-17T15:07:46;15.50;99.90
24035;DHT22;12242;50.952;4.678;2024-03-17T15:10:14;15.40;99.90
24035;DHT22;12242;50.952;4.678;2024-03-17T15:12:42;15.30;99.90
24035;DHT22;12242;50.952;4.678;2024-03-17T15:15:09;15.20;99.90
24035;DHT22;12242;50.952;4.678;2024-03-17T15:17:39;15.20;99.90
24035;DHT22;12242;50.952;4.678;2024-03-17T15:20:07;15.40;99.90
24035;DHT22;12242;50.952;4.678;2024-03-17T15:22:45;15.40;99.90
24035;DHT22;12242;50.952;4.678;2024-03-17T15:25:16;15.50;99.90
24035;DHT22;12242;50.952;4.678;2024-03-17T15:27:45;15.60;99.90
24035;DHT22;12242;50.952;4.678;2024-03-17T15:30:13;15.50;99.90
24035;DHT22;12242;50.952;4.678;2024-03-17T15:32:46;15.60;99.90
24035;DHT22;12242;50.952;4.678;2024-03-17T15:35:13;15.80;99.90
24035;DHT22;12242;50.952;4.678;2024-03-17T15:37:40;16.00;99.90
24035;DHT22;12242;50.952;4.678;2024-03-17T15:40:09;16.30;99.90
24035;DHT22;12242;50.952;4.678;2024-03-17T15:42:49;16.10;99.90
24035;DHT22;12242;50.952;4.678;2024-03-17T15:45:17;16.10;99.90
24035;DHT22;12242;50.952;4.678;2024-03-17T15:47:50;16.00;99.90
24035;DHT22;12242;50.952;4.678;2024-03-17T15:50:16;16.00;99.90
24035;DHT22;12242;50.952;4.678;2024-03-17T15:52:45;16.10;99.90
24035;DHT22;12242;50.952;4.678;2024-03-17T15:55:15;16.10;99.90
24035;DHT22;12242;50.952;4.678;2024-03-17T15:57:41;16.00;99.90
24035;DHT22;12242;50.952;4.678;2024-03-17T16:00:09;15.70;99.90
24035;DHT22;12242;50.952;4.678;2024-03-17T16:02:37;15.60;99.90
24035;DHT22;12242;50.952;4.678;2024-03-17T16:05:05;15.50;99.90
24035;DHT22;12242;50.952;4.678;2024-03-17T16:07:37;15.30;99.90
24035;DHT22;12242;50.952;4.678;2024-03-17T16:10:08;15.20;99.90
24035;DHT22;12242;50.952;4.678;2024-03-17T16:12:37;15.20;99.90
24035;DHT22;12242;50.952;4.678;2024-03-17T16:15:13;15.10;99.90